sensor_id;sensor_type;location;lat;lon;timestamp;P1;durP1;ratioP1;P2;durP2;ratioP2
53040;SDS011;39326;42.650;23.248;2022-07-29T00:00:46;9.35;;;8.52;;
53040;SDS011;39326;42.650;23.248;2022-07-29T00:03:12;9.17;;;8.33;;
53040;SDS011;39326;42.650;23.248;2022-07-29T00:05:39;8.52;;;7.72;;
53040;SDS011;39326;42.650;23.248;2022-07-29T00:08:05;8.40;;;7.75;;
53040;SDS011;39326;42.650;23.248;2022-07-29T00:10:32;9.43;;;8.73;;
53040;SDS011;39326;42.650;23.248;2022-07-29T00:12:58;9.23;;;8.63;;
53040;SDS011;39326;42.650;23.248;2022-07-29T00:15:24;9.53;;;8.80;;
53040;SDS011;39326;42.650;23.248;2022-07-29T00:17:50;10.50;;;9.60;;
53040;SDS011;39326;42.650;23.248;2022-07-29T00:20:17;9.03;;;8.33;;
53040;SDS011;39326;42.650;23.248;2022-07-29T00:22:43;8.93;;;8.17;;
53040;SDS011;39326;42.650;23.248;2022-07-29T00:25:09;9.43;;;8.83;;
53040;SDS011;39326;42.650;23.248;2022-07-29T00:27:37;9.95;;;8.85;;
53040;SDS011;39326;42.650;23.248;2022-07-29T00:30:04;9.20;;;8.27;;
53040;SDS011;39326;42.650;23.248;2022-07-29T00:32:30;9.52;;;8.82;;
53040;SDS011;39326;42.650;23.248;2022-07-29T00:34:56;9.43;;;8.63;;
53040;SDS011;39326;42.650;23.248;2022-07-29T00:37:41;9.07;;;8.37;;
53040;SDS011;39326;42.650;23.248;2022-07-29T00:40:07;9.90;;;9.20;;
53040;SDS011;39326;42.650;23.248;2022-07-29T00:42:46;9.68;;;8.95;;
53040;SDS011;39326;42.650;23.248;2022-07-29T00:45:13;9.57;;;8.87;;
53040;SDS011;39326;42.650;23.248;2022-07-29T00:47:40;9.18;;;8.38;;
53040;SDS011;39326;42.650;23.248;2022-07-29T00:50:07;9.70;;;8.97;;
53040;SDS011;39326;42.650;23.248;2022-07-29T00:52:34;9.07;;;8.38;;
53040;SDS011;39326;42.650;23.248;2022-07-29T00:55:02;9.70;;;8.87;;
53040;SDS011;39326;42.650;23.248;2022-07-29T00:57:29;9.35;;;8.55;;
53040;SDS011;39326;42.650;23.248;2022-07-29T00:59:56;8.80;;;8.20;;
53040;SDS011;39326;42.650;23.248;2022-07-29T01:02:22;9.50;;;8.80;;
53040;SDS011;39326;42.650;23.248;2022-07-29T01:04:48;9.23;;;8.48;;
53040;SDS011;39326;42.650;23.248;2022-07-29T01:07:14;9.50;;;8.70;;
53040;SDS011;39326;42.650;23.248;2022-07-29T01:09:40;9.00;;;8.30;;
53040;SDS011;39326;42.650;23.248;2022-07-29T01:12:08;9.07;;;8.38;;
53040;SDS011;39326;42.650;23.248;2022-07-29T01:14:35;9.02;;;8.27;;
53040;SDS011;39326;42.650;23.248;2022-07-29T01:17:05;9.23;;;8.45;;
53040;SDS011;39326;42.650;23.248;2022-07-29T01:27:56;9.73;;;8.93;;
53040;SDS011;39326;42.650;23.248;2022-07-29T01:30:26;10.55;;;9.60;;
53040;SDS011;39326;42.650;23.248;2022-07-29T01:32:54;10.40;;;9.53;;
53040;SDS011;39326;42.650;23.248;2022-07-29T01:35:26;11.23;;;10.35;;
53040;SDS011;39326;42.650;23.248;2022-07-29T01:43:11;10.48;;;9.68;;
53040;SDS011;39326;42.650;23.248;2022-07-29T01:45:43;10.63;;;9.73;;
53040;SDS011;39326;42.650;23.248;2022-07-29T01:48:16;10.33;;;9.53;;
53040;SDS011;39326;42.650;23.248;2022-07-29T01:50:50;10.80;;;10.00;;
53040;SDS011;39326;42.650;23.248;2022-07-29T01:53:31;12.35;;;11.25;;
53040;SDS011;39326;42.650;23.248;2022-07-29T01:56:01;12.80;;;11.50;;
53040;SDS011;39326;42.650;23.248;2022-07-29T01:58:28;11.80;;;10.82;;
53040;SDS011;39326;42.650;23.248;2022-07-29T02:00:57;12.10;;;11.10;;
53040;SDS011;39326;42.650;23.248;2022-07-29T02:03:25;12.18;;;11.13;;
53040;SDS011;39326;42.650;23.248;2022-07-29T02:05:52;10.80;;;10.00;;
53040;SDS011;39326;42.650;23.248;2022-07-29T02:08:21;10.88;;;10.07;;
53040;SDS011;39326;42.650;23.248;2022-07-29T02:10:49;11.02;;;10.15;;
53040;SDS011;39326;42.650;23.248;2022-07-29T02:13:16;11.30;;;10.40;;
53040;SDS011;39326;42.650;23.248;2022-07-29T02:15:46;12.00;;;10.88;;
53040;SDS011;39326;42.650;23.248;2022-07-29T02:18:15;13.18;;;11.93;;
53040;SDS011;39326;42.650;23.248;2022-07-29T02:20:47;11.32;;;10.43;;
53040;SDS011;39326;42.650;23.248;2022-07-29T02:23:17;12.15;;;11.18;;
53040;SDS011;39326;42.650;23.248;2022-07-29T02:25:50;14.27;;;13.20;;
53040;SDS011;39326;42.650;23.248;2022-07-29T02:28:19;14.63;;;13.27;;
53040;SDS011;39326;42.650;23.248;2022-07-29T02:30:47;14.85;;;13.52;;
53040;SDS011;39326;42.650;23.248;2022-07-29T02:33:15;14.57;;;13.27;;
53040;SDS011;39326;42.650;23.248;2022-07-29T02:35:44;14.30;;;13.18;;
53040;SDS011;39326;42.650;23.248;2022-07-29T02:38:12;12.73;;;11.73;;
53040;SDS011;39326;42.650;23.248;2022-07-29T02:40:59;12.77;;;11.67;;
53040;SDS011;39326;42.650;23.248;2022-07-29T02:43:31;13.17;;;12.17;;
53040;SDS011;39326;42.650;23.248;2022-07-29T02:45:59;13.18;;;12.05;;
53040;SDS011;39326;42.650;23.248;2022-07-29T02:48:34;13.52;;;12.52;;
53040;SDS011;39326;42.650;23.248;2022-07-29T02:51:11;14.23;;;13.02;;
53040;SDS011;39326;42.650;23.248;2022-07-29T02:53:41;13.77;;;12.67;;
53040;SDS011;39326;42.650;23.248;2022-07-29T02:56:11;12.80;;;11.90;;
53040;SDS011;39326;42.650;23.248;2022-07-29T02:58:45;13.60;;;12.57;;
53040;SDS011;39326;42.650;23.248;2022-07-29T03:01:16;13.53;;;12.50;;
53040;SDS011;39326;42.650;23.248;2022-07-29T03:03:46;12.93;;;11.83;;
53040;SDS011;39326;42.650;23.248;2022-07-29T03:06:16;14.18;;;13.00;;
53040;SDS011;39326;42.650;23.248;2022-07-29T03:08:43;14.77;;;13.57;;
53040;SDS011;39326;42.650;23.248;2022-07-29T03:11:11;14.10;;;12.80;;
53040;SDS011;39326;42.650;23.248;2022-07-29T03:13:38;14.43;;;13.33;;
53040;SDS011;39326;42.650;23.248;2022-07-29T03:16:05;14.60;;;13.20;;
53040;SDS011;39326;42.650;23.248;2022-07-29T03:18:31;14.70;;;13.60;;
53040;SDS011;39326;42.650;23.248;2022-07-29T03:20:58;14.97;;;13.87;;
53040;SDS011;39326;42.650;23.248;2022-07-29T03:23:25;14.63;;;13.40;;
53040;SDS011;39326;42.650;23.248;2022-07-29T03:25:53;14.47;;;13.27;;
53040;SDS011;39326;42.650;23.248;2022-07-29T03:28:19;13.00;;;11.97;;
53040;SDS011;39326;42.650;23.248;2022-07-29T03:30:46;16.35;;;15.05;;
53040;SDS011;39326;42.650;23.248;2022-07-29T03:33:12;14.93;;;13.65;;
53040;SDS011;39326;42.650;23.248;2022-07-29T03:35:38;16.67;;;15.27;;
53040;SDS011;39326;42.650;23.248;2022-07-29T03:38:05;16.23;;;15.03;;
53040;SDS011;39326;42.650;23.248;2022-07-29T03:40:40;15.38;;;14.27;;
53040;SDS011;39326;42.650;23.248;2022-07-29T03:43:11;14.50;;;13.38;;
53040;SDS011;39326;42.650;23.248;2022-07-29T03:45:42;14.87;;;13.60;;
53040;SDS011;39326;42.650;23.248;2022-07-29T03:48:10;14.73;;;13.60;;
53040;SDS011;39326;42.650;23.248;2022-07-29T03:50:39;14.63;;;13.52;;
53040;SDS011;39326;42.650;23.248;2022-07-29T03:53:05;16.13;;;14.82;;
53040;SDS011;39326;42.650;23.248;2022-07-29T03:55:33;15.67;;;14.23;;
53040;SDS011;39326;42.650;23.248;2022-07-29T03:58:05;14.82;;;13.38;;
53040;SDS011;39326;42.650;23.248;2022-07-29T04:00:33;14.90;;;13.63;;
53040;SDS011;39326;42.650;23.248;2022-07-29T04:03:01;13.70;;;12.70;;
53040;SDS011;39326;42.650;23.248;2022-07-29T04:05:29;14.00;;;12.90;;
53040;SDS011;39326;42.650;23.248;2022-07-29T04:07:55;15.63;;;14.43;;
53040;SDS011;39326;42.650;23.248;2022-07-29T04:10:22;14.73;;;13.47;;
53040;SDS011;39326;42.650;23.248;2022-07-29T04:12:50;13.93;;;12.93;;
53040;SDS011;39326;42.650;23.248;2022-07-29T04:15:17;14.03;;;12.83;;
53040;SDS011;39326;42.650;23.248;2022-07-29T04:17:43;15.15;;;13.93;;
53040;SDS011;39326;42.650;23.248;2022-07-29T04:20:10;14.68;;;13.45;;
53040;SDS011;39326;42.650;23.248;2022-07-29T04:22:39;16.23;;;14.83;;
53040;SDS011;39326;42.650;23.248;2022-07-29T04:25:05;16.83;;;15.37;;
53040;SDS011;39326;42.650;23.248;2022-07-29T04:27:32;16.40;;;14.75;;
53040;SDS011;39326;42.650;23.248;2022-07-29T04:29:57;15.75;;;14.48;;
53040;SDS011;39326;42.650;23.248;2022-07-29T04:32:24;15.82;;;14.63;;
53040;SDS011;39326;42.650;23.248;2022-07-29T04:34:50;16.55;;;15.25;;
53040;SDS011;39326;42.650;23.248;2022-07-29T04:37:17;15.83;;;14.60;;
53040;SDS011;39326;42.650;23.248;2022-07-29T04:39:44;16.52;;;14.98;;
53040;SDS011;39326;42.650;23.248;2022-07-29T04:42:10;16.98;;;15.18;;
53040;SDS011;39326;42.650;23.248;2022-07-29T04:44:37;15.95;;;14.73;;
53040;SDS011;39326;42.650;23.248;2022-07-29T04:47:03;14.75;;;13.57;;
53040;SDS011;39326;42.650;23.248;2022-07-29T04:49:29;16.60;;;15.20;;
53040;SDS011;39326;42.650;23.248;2022-07-29T04:51:55;15.43;;;14.27;;
53040;SDS011;39326;42.650;23.248;2022-07-29T04:54:21;15.87;;;14.50;;
53040;SDS011;39326;42.650;23.248;2022-07-29T04:56:47;15.65;;;14.23;;
53040;SDS011;39326;42.650;23.248;2022-07-29T04:59:13;15.30;;;14.07;;
53040;SDS011;39326;42.650;23.248;2022-07-29T05:01:40;16.15;;;14.85;;
53040;SDS011;39326;42.650;23.248;2022-07-29T05:04:06;15.13;;;13.88;;
53040;SDS011;39326;42.650;23.248;2022-07-29T05:06:32;15.93;;;14.80;;
53040;SDS011;39326;42.650;23.248;2022-07-29T05:08:58;14.93;;;13.73;;
53040;SDS011;39326;42.650;23.248;2022-07-29T05:11:24;16.20;;;14.80;;
53040;SDS011;39326;42.650;23.248;2022-07-29T05:13:50;14.85;;;13.65;;
53040;SDS011;39326;42.650;23.248;2022-07-29T05:16:16;14.48;;;13.38;;
53040;SDS011;39326;42.650;23.248;2022-07-29T05:18:42;16.13;;;14.80;;
53040;SDS011;39326;42.650;23.248;2022-07-29T05:21:08;14.95;;;13.75;;
53040;SDS011;39326;42.650;23.248;2022-07-29T05:23:34;14.40;;;13.10;;
53040;SDS011;39326;42.650;23.248;2022-07-29T05:26:00;16.27;;;14.88;;
53040;SDS011;39326;42.650;23.248;2022-07-29T05:28:27;15.40;;;14.10;;
53040;SDS011;39326;42.650;23.248;2022-07-29T05:30:53;16.35;;;14.77;;
53040;SDS011;39326;42.650;23.248;2022-07-29T05:33:19;15.45;;;14.25;;
53040;SDS011;39326;42.650;23.248;2022-07-29T05:35:45;15.20;;;14.00;;
53040;SDS011;39326;42.650;23.248;2022-07-29T05:38:11;15.10;;;14.00;;
53040;SDS011;39326;42.650;23.248;2022-07-29T05:40:38;15.50;;;14.32;;
53040;SDS011;39326;42.650;23.248;2022-07-29T05:43:03;13.98;;;12.70;;
53040;SDS011;39326;42.650;23.248;2022-07-29T05:45:29;14.82;;;13.52;;
53040;SDS011;39326;42.650;23.248;2022-07-29T05:47:55;12.88;;;11.88;;
53040;SDS011;39326;42.650;23.248;2022-07-29T05:50:22;14.15;;;12.95;;
53040;SDS011;39326;42.650;23.248;2022-07-29T05:52:48;11.90;;;10.80;;
53040;SDS011;39326;42.650;23.248;2022-07-29T05:55:14;14.40;;;13.20;;
53040;SDS011;39326;42.650;23.248;2022-07-29T05:57:40;12.95;;;11.63;;
53040;SDS011;39326;42.650;23.248;2022-07-29T06:00:06;12.82;;;11.57;;
53040;SDS011;39326;42.650;23.248;2022-07-29T06:02:32;9.80;;;9.02;;
53040;SDS011;39326;42.650;23.248;2022-07-29T06:04:59;8.95;;;8.10;;
53040;SDS011;39326;42.650;23.248;2022-07-29T06:07:25;8.55;;;7.72;;
53040;SDS011;39326;42.650;23.248;2022-07-29T06:09:51;8.68;;;7.78;;
53040;SDS011;39326;42.650;23.248;2022-07-29T06:12:16;8.13;;;7.43;;
53040;SDS011;39326;42.650;23.248;2022-07-29T06:14:42;7.88;;;7.18;;
53040;SDS011;39326;42.650;23.248;2022-07-29T06:17:08;9.35;;;7.35;;
53040;SDS011;39326;42.650;23.248;2022-07-29T06:19:34;7.72;;;6.60;;
53040;SDS011;39326;42.650;23.248;2022-07-29T06:22:00;7.75;;;7.05;;
53040;SDS011;39326;42.650;23.248;2022-07-29T06:24:26;7.95;;;6.70;;
53040;SDS011;39326;42.650;23.248;2022-07-29T06:26:52;7.32;;;6.05;;
53040;SDS011;39326;42.650;23.248;2022-07-29T06:29:18;8.07;;;7.47;;
53040;SDS011;39326;42.650;23.248;2022-07-29T06:31:43;6.90;;;6.30;;
53040;SDS011;39326;42.650;23.248;2022-07-29T06:34:09;7.10;;;6.50;;
53040;SDS011;39326;42.650;23.248;2022-07-29T06:36:35;8.95;;;7.38;;
53040;SDS011;39326;42.650;23.248;2022-07-29T06:39:03;7.93;;;7.15;;
53040;SDS011;39326;42.650;23.248;2022-07-29T06:41:30;7.57;;;6.97;;
53040;SDS011;39326;42.650;23.248;2022-07-29T06:43:56;7.20;;;6.47;;
53040;SDS011;39326;42.650;23.248;2022-07-29T06:46:21;8.45;;;6.53;;
53040;SDS011;39326;42.650;23.248;2022-07-29T06:48:48;6.80;;;6.20;;
53040;SDS011;39326;42.650;23.248;2022-07-29T06:51:14;6.50;;;5.90;;
53040;SDS011;39326;42.650;23.248;2022-07-29T06:53:39;7.88;;;7.18;;
53040;SDS011;39326;42.650;23.248;2022-07-29T06:56:05;8.02;;;7.22;;
53040;SDS011;39326;42.650;23.248;2022-07-29T06:58:33;8.38;;;7.57;;
53040;SDS011;39326;42.650;23.248;2022-07-29T07:01:01;7.13;;;6.43;;
53040;SDS011;39326;42.650;23.248;2022-07-29T07:03:29;7.28;;;6.57;;
53040;SDS011;39326;42.650;23.248;2022-07-29T07:05:55;8.27;;;7.03;;
53040;SDS011;39326;42.650;23.248;2022-07-29T07:08:21;7.15;;;6.55;;
53040;SDS011;39326;42.650;23.248;2022-07-29T07:10:48;7.85;;;6.93;;
53040;SDS011;39326;42.650;23.248;2022-07-29T07:13:13;6.90;;;6.20;;
53040;SDS011;39326;42.650;23.248;2022-07-29T07:15:42;7.28;;;6.32;;
53040;SDS011;39326;42.650;23.248;2022-07-29T07:18:09;7.47;;;6.70;;
53040;SDS011;39326;42.650;23.248;2022-07-29T07:20:35;8.63;;;6.75;;
53040;SDS011;39326;42.650;23.248;2022-07-29T07:23:02;6.82;;;6.22;;
53040;SDS011;39326;42.650;23.248;2022-07-29T07:25:28;7.95;;;6.75;;
53040;SDS011;39326;42.650;23.248;2022-07-29T07:27:53;6.75;;;6.13;;
53040;SDS011;39326;42.650;23.248;2022-07-29T07:30:19;9.18;;;6.60;;
53040;SDS011;39326;42.650;23.248;2022-07-29T07:32:45;8.10;;;6.90;;
53040;SDS011;39326;42.650;23.248;2022-07-29T07:35:11;7.35;;;6.80;;
53040;SDS011;39326;42.650;23.248;2022-07-29T07:37:37;8.00;;;7.20;;
53040;SDS011;39326;42.650;23.248;2022-07-29T07:40:06;7.72;;;7.03;;
53040;SDS011;39326;42.650;23.248;2022-07-29T07:42:32;7.95;;;7.25;;
53040;SDS011;39326;42.650;23.248;2022-07-29T07:44:58;7.38;;;6.70;;
53040;SDS011;39326;42.650;23.248;2022-07-29T07:47:24;7.32;;;6.63;;
53040;SDS011;39326;42.650;23.248;2022-07-29T07:49:50;6.88;;;6.25;;
53040;SDS011;39326;42.650;23.248;2022-07-29T07:52:16;8.00;;;7.30;;
53040;SDS011;39326;42.650;23.248;2022-07-29T07:54:43;6.80;;;6.18;;
53040;SDS011;39326;42.650;23.248;2022-07-29T07:57:10;6.65;;;6.03;;
53040;SDS011;39326;42.650;23.248;2022-07-29T07:59:36;7.03;;;6.43;;
53040;SDS011;39326;42.650;23.248;2022-07-29T08:02:02;7.50;;;6.90;;
53040;SDS011;39326;42.650;23.248;2022-07-29T08:04:28;7.03;;;6.53;;
53040;SDS011;39326;42.650;23.248;2022-07-29T08:06:55;7.38;;;6.78;;
53040;SDS011;39326;42.650;23.248;2022-07-29T08:09:22;5.78;;;5.20;;
53040;SDS011;39326;42.650;23.248;2022-07-29T08:11:48;6.57;;;5.95;;
53040;SDS011;39326;42.650;23.248;2022-07-29T08:14:14;6.57;;;5.97;;
53040;SDS011;39326;42.650;23.248;2022-07-29T08:16:40;6.47;;;5.82;;
53040;SDS011;39326;42.650;23.248;2022-07-29T08:19:07;5.63;;;5.22;;
53040;SDS011;39326;42.650;23.248;2022-07-29T08:21:32;10.32;;;5.47;;
53040;SDS011;39326;42.650;23.248;2022-07-29T08:23:58;5.35;;;4.90;;
53040;SDS011;39326;42.650;23.248;2022-07-29T08:26:42;5.80;;;5.28;;
53040;SDS011;39326;42.650;23.248;2022-07-29T08:29:09;5.40;;;4.90;;
53040;SDS011;39326;42.650;23.248;2022-07-29T08:31:35;5.65;;;5.07;;
53040;SDS011;39326;42.650;23.248;2022-07-29T08:34:02;5.40;;;4.90;;
53040;SDS011;39326;42.650;23.248;2022-07-29T08:36:29;5.30;;;4.78;;
53040;SDS011;39326;42.650;23.248;2022-07-29T08:38:56;5.18;;;4.78;;
53040;SDS011;39326;42.650;23.248;2022-07-29T08:41:22;5.35;;;4.82;;
53040;SDS011;39326;42.650;23.248;2022-07-29T08:43:48;5.07;;;4.68;;
53040;SDS011;39326;42.650;23.248;2022-07-29T08:46:15;5.30;;;4.78;;
53040;SDS011;39326;42.650;23.248;2022-07-29T08:48:42;5.00;;;4.63;;
53040;SDS011;39326;42.650;23.248;2022-07-29T08:51:08;5.28;;;4.88;;
53040;SDS011;39326;42.650;23.248;2022-07-29T08:53:39;6.90;;;4.97;;
53040;SDS011;39326;42.650;23.248;2022-07-29T08:56:07;5.35;;;4.95;;
53040;SDS011;39326;42.650;23.248;2022-07-29T08:58:36;5.53;;;5.13;;
53040;SDS011;39326;42.650;23.248;2022-07-29T09:01:02;5.35;;;4.90;;
53040;SDS011;39326;42.650;23.248;2022-07-29T09:03:31;5.18;;;4.78;;
53040;SDS011;39326;42.650;23.248;2022-07-29T09:05:59;5.10;;;4.72;;
53040;SDS011;39326;42.650;23.248;2022-07-29T09:08:26;5.10;;;4.60;;
53040;SDS011;39326;42.650;23.248;2022-07-29T09:10:54;5.07;;;4.07;;
53040;SDS011;39326;42.650;23.248;2022-07-29T09:13:21;4.72;;;4.43;;
53040;SDS011;39326;42.650;23.248;2022-07-29T09:15:47;5.22;;;4.82;;
53040;SDS011;39326;42.650;23.248;2022-07-29T09:21:13;4.68;;;4.38;;
53040;SDS011;39326;42.650;23.248;2022-07-29T09:23:59;4.97;;;4.57;;
53040;SDS011;39326;42.650;23.248;2022-07-29T09:26:34;5.25;;;4.75;;
53040;SDS011;39326;42.650;23.248;2022-07-29T09:29:07;4.95;;;4.55;;
53040;SDS011;39326;42.650;23.248;2022-07-29T09:31:38;4.80;;;4.40;;
53040;SDS011;39326;42.650;23.248;2022-07-29T09:34:06;5.68;;;5.03;;
53040;SDS011;39326;42.650;23.248;2022-07-29T09:36:41;6.40;;;4.75;;
53040;SDS011;39326;42.650;23.248;2022-07-29T09:39:12;5.55;;;5.05;;
53040;SDS011;39326;42.650;23.248;2022-07-29T09:41:53;5.15;;;4.75;;
53040;SDS011;39326;42.650;23.248;2022-07-29T09:44:20;5.13;;;4.53;;
53040;SDS011;39326;42.650;23.248;2022-07-29T09:46:59;5.30;;;4.80;;
53040;SDS011;39326;42.650;23.248;2022-07-29T09:49:33;5.13;;;4.78;;
53040;SDS011;39326;42.650;23.248;2022-07-29T09:52:00;5.22;;;4.90;;
53040;SDS011;39326;42.650;23.248;2022-07-29T09:54:29;5.43;;;4.93;;
53040;SDS011;39326;42.650;23.248;2022-07-29T09:56:59;7.30;;;5.00;;
53040;SDS011;39326;42.650;23.248;2022-07-29T09:59:25;5.65;;;5.22;;
53040;SDS011;39326;42.650;23.248;2022-07-29T10:01:51;5.88;;;5.47;;
53040;SDS011;39326;42.650;23.248;2022-07-29T10:04:18;4.95;;;4.55;;
53040;SDS011;39326;42.650;23.248;2022-07-29T10:09:25;5.03;;;4.65;;
53040;SDS011;39326;42.650;23.248;2022-07-29T10:12:07;5.82;;;5.30;;
53040;SDS011;39326;42.650;23.248;2022-07-29T10:14:40;5.40;;;5.00;;
53040;SDS011;39326;42.650;23.248;2022-07-29T10:17:07;5.57;;;5.10;;
53040;SDS011;39326;42.650;23.248;2022-07-29T10:19:34;4.65;;;4.30;;
53040;SDS011;39326;42.650;23.248;2022-07-29T10:22:06;5.38;;;4.93;;
53040;SDS011;39326;42.650;23.248;2022-07-29T10:24:34;5.22;;;4.82;;
53040;SDS011;39326;42.650;23.248;2022-07-29T10:27:01;5.97;;;5.43;;
53040;SDS011;39326;42.650;23.248;2022-07-29T10:29:29;5.68;;;5.15;;
53040;SDS011;39326;42.650;23.248;2022-07-29T10:40:34;5.80;;;5.32;;
53040;SDS011;39326;42.650;23.248;2022-07-29T10:43:43;5.90;;;5.40;;
53040;SDS011;39326;42.650;23.248;2022-07-29T10:46:11;5.68;;;5.28;;
53040;SDS011;39326;42.650;23.248;2022-07-29T10:49:23;5.47;;;5.00;;
53040;SDS011;39326;42.650;23.248;2022-07-29T10:51:55;6.10;;;5.63;;
53040;SDS011;39326;42.650;23.248;2022-07-29T10:59:37;7.53;;;5.90;;
53040;SDS011;39326;42.650;23.248;2022-07-29T11:02:40;6.18;;;5.63;;
53040;SDS011;39326;42.650;23.248;2022-07-29T11:07:37;6.10;;;5.60;;
53040;SDS011;39326;42.650;23.248;2022-07-29T11:23:16;6.78;;;6.28;;
53040;SDS011;39326;42.650;23.248;2022-07-29T11:25:43;5.50;;;5.00;;
53040;SDS011;39326;42.650;23.248;2022-07-29T11:28:10;5.50;;;5.10;;
53040;SDS011;39326;42.650;23.248;2022-07-29T11:30:48;5.78;;;5.18;;
53040;SDS011;39326;42.650;23.248;2022-07-29T11:33:26;5.57;;;5.07;;
53040;SDS011;39326;42.650;23.248;2022-07-29T11:36:12;5.45;;;5.07;;
53040;SDS011;39326;42.650;23.248;2022-07-29T11:38:39;5.72;;;5.22;;
53040;SDS011;39326;42.650;23.248;2022-07-29T11:41:25;5.45;;;5.00;;
53040;SDS011;39326;42.650;23.248;2022-07-29T11:43:54;5.88;;;5.40;;
53040;SDS011;39326;42.650;23.248;2022-07-29T11:49:23;5.95;;;5.43;;
53040;SDS011;39326;42.650;23.248;2022-07-29T11:51:51;5.30;;;4.75;;
53040;SDS011;39326;42.650;23.248;2022-07-29T11:54:31;5.60;;;5.30;;
53040;SDS011;39326;42.650;23.248;2022-07-29T11:56:59;6.03;;;5.53;;
53040;SDS011;39326;42.650;23.248;2022-07-29T11:59:25;5.45;;;5.15;;
53040;SDS011;39326;42.650;23.248;2022-07-29T12:01:58;5.82;;;5.43;;
53040;SDS011;39326;42.650;23.248;2022-07-29T12:04:24;5.70;;;5.30;;
53040;SDS011;39326;42.650;23.248;2022-07-29T12:06:52;5.50;;;5.15;;
53040;SDS011;39326;42.650;23.248;2022-07-29T12:09:18;5.60;;;5.28;;
53040;SDS011;39326;42.650;23.248;2022-07-29T12:11:45;6.47;;;5.95;;
53040;SDS011;39326;42.650;23.248;2022-07-29T12:14:27;5.90;;;5.50;;
53040;SDS011;39326;42.650;23.248;2022-07-29T12:16:54;5.90;;;5.50;;
53040;SDS011;39326;42.650;23.248;2022-07-29T12:19:20;5.90;;;5.45;;
53040;SDS011;39326;42.650;23.248;2022-07-29T12:21:47;6.38;;;5.53;;
53040;SDS011;39326;42.650;23.248;2022-07-29T12:24:13;6.20;;;5.60;;
53040;SDS011;39326;42.650;23.248;2022-07-29T12:29:20;5.72;;;5.38;;
53040;SDS011;39326;42.650;23.248;2022-07-29T12:31:45;6.18;;;5.68;;
53040;SDS011;39326;42.650;23.248;2022-07-29T12:34:12;6.32;;;5.93;;
53040;SDS011;39326;42.650;23.248;2022-07-29T12:36:40;5.60;;;5.20;;
53040;SDS011;39326;42.650;23.248;2022-07-29T12:39:08;6.07;;;5.50;;
53040;SDS011;39326;42.650;23.248;2022-07-29T12:41:34;5.72;;;5.20;;
53040;SDS011;39326;42.650;23.248;2022-07-29T12:44:01;6.63;;;6.13;;
53040;SDS011;39326;42.650;23.248;2022-07-29T12:46:27;5.88;;;5.30;;
53040;SDS011;39326;42.650;23.248;2022-07-29T12:48:53;5.80;;;5.40;;
53040;SDS011;39326;42.650;23.248;2022-07-29T12:51:33;5.25;;;4.85;;
53040;SDS011;39326;42.650;23.248;2022-07-29T12:54:13;5.72;;;5.22;;
53040;SDS011;39326;42.650;23.248;2022-07-29T12:56:42;5.60;;;5.18;;
53040;SDS011;39326;42.650;23.248;2022-07-29T13:01:37;5.63;;;5.20;;
53040;SDS011;39326;42.650;23.248;2022-07-29T13:04:03;5.72;;;5.20;;
53040;SDS011;39326;42.650;23.248;2022-07-29T13:11:46;5.53;;;5.07;;
53040;SDS011;39326;42.650;23.248;2022-07-29T13:14:33;5.38;;;5.07;;
53040;SDS011;39326;42.650;23.248;2022-07-29T13:17:04;5.47;;;4.97;;
53040;SDS011;39326;42.650;23.248;2022-07-29T13:19:37;5.32;;;4.72;;
53040;SDS011;39326;42.650;23.248;2022-07-29T13:22:06;5.40;;;5.00;;
53040;SDS011;39326;42.650;23.248;2022-07-29T13:24:33;6.07;;;5.60;;
53040;SDS011;39326;42.650;23.248;2022-07-29T13:27:00;5.53;;;5.22;;
53040;SDS011;39326;42.650;23.248;2022-07-29T13:29:25;5.95;;;5.40;;
53040;SDS011;39326;42.650;23.248;2022-07-29T13:31:51;5.55;;;5.15;;
53040;SDS011;39326;42.650;23.248;2022-07-29T13:34:17;5.75;;;5.25;;
53040;SDS011;39326;42.650;23.248;2022-07-29T13:36:45;5.85;;;5.45;;
53040;SDS011;39326;42.650;23.248;2022-07-29T13:39:11;5.65;;;5.22;;
53040;SDS011;39326;42.650;23.248;2022-07-29T13:41:37;5.30;;;4.95;;
53040;SDS011;39326;42.650;23.248;2022-07-29T13:44:03;6.13;;;5.63;;
53040;SDS011;39326;42.650;23.248;2022-07-29T13:46:28;5.72;;;5.43;;
53040;SDS011;39326;42.650;23.248;2022-07-29T13:48:54;5.22;;;4.82;;
53040;SDS011;39326;42.650;23.248;2022-07-29T13:51:19;6.07;;;5.50;;
53040;SDS011;39326;42.650;23.248;2022-07-29T13:53:45;5.30;;;4.90;;
53040;SDS011;39326;42.650;23.248;2022-07-29T13:56:11;5.85;;;5.35;;
53040;SDS011;39326;42.650;23.248;2022-07-29T13:58:37;6.15;;;5.70;;
53040;SDS011;39326;42.650;23.248;2022-07-29T14:01:02;5.60;;;5.20;;
53040;SDS011;39326;42.650;23.248;2022-07-29T14:03:28;5.97;;;5.57;;
53040;SDS011;39326;42.650;23.248;2022-07-29T14:05:54;5.95;;;5.55;;
53040;SDS011;39326;42.650;23.248;2022-07-29T14:08:21;6.07;;;5.57;;
53040;SDS011;39326;42.650;23.248;2022-07-29T14:10:46;5.80;;;5.15;;
53040;SDS011;39326;42.650;23.248;2022-07-29T14:13:12;5.10;;;4.80;;
53040;SDS011;39326;42.650;23.248;2022-07-29T14:15:38;5.65;;;5.25;;
53040;SDS011;39326;42.650;23.248;2022-07-29T14:18:04;5.10;;;4.72;;
53040;SDS011;39326;42.650;23.248;2022-07-29T14:20:30;5.68;;;5.28;;
53040;SDS011;39326;42.650;23.248;2022-07-29T14:22:56;5.47;;;5.07;;
53040;SDS011;39326;42.650;23.248;2022-07-29T14:25:22;5.25;;;4.95;;
53040;SDS011;39326;42.650;23.248;2022-07-29T14:27:48;7.13;;;5.57;;
53040;SDS011;39326;42.650;23.248;2022-07-29T14:30:14;5.60;;;5.10;;
53040;SDS011;39326;42.650;23.248;2022-07-29T14:32:40;6.15;;;5.40;;
53040;SDS011;39326;42.650;23.248;2022-07-29T14:35:06;6.25;;;5.78;;
53040;SDS011;39326;42.650;23.248;2022-07-29T14:37:33;5.90;;;5.43;;
53040;SDS011;39326;42.650;23.248;2022-07-29T14:40:00;6.15;;;5.65;;
53040;SDS011;39326;42.650;23.248;2022-07-29T14:42:28;6.20;;;5.80;;
53040;SDS011;39326;42.650;23.248;2022-07-29T14:44:56;5.95;;;5.47;;
53040;SDS011;39326;42.650;23.248;2022-07-29T14:47:22;5.93;;;5.57;;
53040;SDS011;39326;42.650;23.248;2022-07-29T14:49:48;5.93;;;5.53;;
53040;SDS011;39326;42.650;23.248;2022-07-29T14:52:14;7.90;;;5.63;;
53040;SDS011;39326;42.650;23.248;2022-07-29T14:54:40;5.82;;;5.43;;
53040;SDS011;39326;42.650;23.248;2022-07-29T14:57:06;6.38;;;5.88;;
53040;SDS011;39326;42.650;23.248;2022-07-29T14:59:31;5.90;;;5.50;;
53040;SDS011;39326;42.650;23.248;2022-07-29T15:01:58;5.97;;;5.57;;
53040;SDS011;39326;42.650;23.248;2022-07-29T15:04:23;6.25;;;5.88;;
53040;SDS011;39326;42.650;23.248;2022-07-29T15:06:49;5.97;;;5.63;;
53040;SDS011;39326;42.650;23.248;2022-07-29T15:09:17;6.13;;;5.60;;
53040;SDS011;39326;42.650;23.248;2022-07-29T15:11:43;6.00;;;5.60;;
53040;SDS011;39326;42.650;23.248;2022-07-29T15:14:09;6.32;;;5.82;;
53040;SDS011;39326;42.650;23.248;2022-07-29T15:16:36;6.18;;;5.68;;
53040;SDS011;39326;42.650;23.248;2022-07-29T15:19:03;6.82;;;6.38;;
53040;SDS011;39326;42.650;23.248;2022-07-29T15:21:29;6.90;;;6.43;;
53040;SDS011;39326;42.650;23.248;2022-07-29T15:23:55;6.35;;;5.88;;
53040;SDS011;39326;42.650;23.248;2022-07-29T15:26:22;6.03;;;5.63;;
53040;SDS011;39326;42.650;23.248;2022-07-29T15:28:48;7.32;;;6.75;;
53040;SDS011;39326;42.650;23.248;2022-07-29T15:31:14;6.97;;;6.47;;
53040;SDS011;39326;42.650;23.248;2022-07-29T15:33:40;7.00;;;6.40;;